sensor_id;sensor_type;location;lat;lon;timestamp;pressure;altitude;pressure_sealevel;temperature;humidity
82575;BME280;72260;65.870;13.210;2023-11-19T00:00:15;100858.78;;;-1.50;76.20
82575;BME280;72260;65.870;13.210;2023-11-19T00:02:41;100852.75;;;-1.52;77.16
82575;BME280;72260;65.870;13.210;2023-11-19T00:05:08;100854.13;;;-1.18;75.71
82575;BME280;72260;65.870;13.210;2023-11-19T00:07:40;100848.97;;;-1.19;75.66
82575;BME280;72260;65.870;13.210;2023-11-19T00:10:11;100835.28;;;-1.32;76.37
82575;BME280;72260;65.870;13.210;2023-11-19T00:12:43;100836.19;;;-1.36;77.14
82575;BME280;72260;65.870;13.210;2023-11-19T00:15:09;100840.88;;;-0.93;77.63
82575;BME280;72260;65.870;13.210;2023-11-19T00:17:43;100832.41;;;-1.06;75.72
82575;BME280;72260;65.870;13.210;2023-11-19T00:20:19;100836.19;;;-1.36;76.05
82575;BME280;72260;65.870;13.210;2023-11-19T00:22:45;100827.59;;;-1.41;76.40
82575;BME280;72260;65.870;13.210;2023-11-19T00:25:20;100827.59;;;-1.41;76.70
82575;BME280;72260;65.870;13.210;2023-11-19T00:27:46;100825.81;;;-1.34;76.80
82575;BME280;72260;65.870;13.210;2023-11-19T00:30:12;100818.84;;;-1.31;75.45
82575;BME280;72260;65.870;13.210;2023-11-19T00:32:39;100820.56;;;-1.30;75.99
82575;BME280;72260;65.870;13.210;2023-11-19T00:35:08;100819.03;;;-1.49;76.44
82575;BME280;72260;65.870;13.210;2023-11-19T00:37:35;100817.22;;;-1.41;75.77
82575;BME280;72260;65.870;13.210;2023-11-19T00:40:01;100804.22;;;-1.37;75.13
82575;BME280;72260;65.870;13.210;2023-11-19T00:42:30;100807.72;;;-1.42;75.44
82575;BME280;72260;65.870;13.210;2023-11-19T00:44:56;100808.97;;;-1.86;76.65
82575;BME280;72260;65.870;13.210;2023-11-19T00:47:21;100809.84;;;-1.87;76.35
82575;BME280;72260;65.870;13.210;2023-11-19T00:49:47;100816.69;;;-1.78;76.08
82575;BME280;72260;65.870;13.210;2023-11-19T00:52:17;100810.63;;;-1.76;76.39
82575;BME280;72260;65.870;13.210;2023-11-19T00:54:43;100807.28;;;-1.90;77.17
82575;BME280;72260;65.870;13.210;2023-11-19T00:57:08;100811.63;;;-1.92;76.52
82575;BME280;72260;65.870;13.210;2023-11-19T00:59:34;100804.69;;;-1.87;75.30
82575;BME280;72260;65.870;13.210;2023-11-19T01:02:00;100795.09;;;-1.76;76.88
82575;BME280;72260;65.870;13.210;2023-11-19T01:04:33;100801.16;;;-1.78;75.17
82575;BME280;72260;65.870;13.210;2023-11-19T01:06:58;100799.31;;;-1.65;75.89
82575;BME280;72260;65.870;13.210;2023-11-19T01:09:23;100798.50;;;-1.71;75.00
82575;BME280;72260;65.870;13.210;2023-11-19T01:11:49;100791.59;;;-1.72;75.83
82575;BME280;72260;65.870;13.210;2023-11-19T01:14:14;100787.28;;;-1.74;76.04
82575;BME280;72260;65.870;13.210;2023-11-19T01:16:40;100791.59;;;-1.72;75.18
82575;BME280;72260;65.870;13.210;2023-11-19T01:19:05;100789.91;;;-1.76;76.37
82575;BME280;72260;65.870;13.210;2023-11-19T01:21:31;100784.84;;;-1.91;75.65
82575;BME280;72260;65.870;13.210;2023-11-19T01:23:59;100778.75;;;-1.85;76.41
82575;BME280;72260;65.870;13.210;2023-11-19T01:26:25;100780.41;;;-1.78;75.92
82575;BME280;72260;65.870;13.210;2023-11-19T01:28:50;100788.13;;;-1.71;75.45
82575;BME280;72260;65.870;13.210;2023-11-19T01:31:18;100783.88;;;-1.79;75.66
82575;BME280;72260;65.870;13.210;2023-11-19T01:33:43;100771.00;;;-1.88;75.80
82575;BME280;72260;65.870;13.210;2023-11-19T01:36:09;100765.81;;;-1.87;75.64
82575;BME280;72260;65.870;13.210;2023-11-19T01:38:38;100767.38;;;-1.67;76.07
82575;BME280;72260;65.870;13.210;2023-11-19T01:41:03;100758.63;;;-1.60;75.56
82575;BME280;72260;65.870;13.210;2023-11-19T01:43:39;100745.88;;;-1.79;74.67
82575;BME280;72260;65.870;13.210;2023-11-19T01:46:08;100753.56;;;-1.71;76.01
82575;BME280;72260;65.870;13.210;2023-11-19T01:48:40;100746.59;;;-1.63;75.46
82575;BME280;72260;65.870;13.210;2023-11-19T01:51:06;100751.00;;;-1.73;75.58
82575;BME280;72260;65.870;13.210;2023-11-19T01:53:34;100740.47;;;-1.57;75.21
82575;BME280;72260;65.870;13.210;2023-11-19T01:56:01;100745.75;;;-1.66;74.83
82575;BME280;72260;65.870;13.210;2023-11-19T01:58:27;100737.03;;;-1.61;74.63
82575;BME280;72260;65.870;13.210;2023-11-19T02:00:56;100738.13;;;-1.80;74.76
82575;BME280;72260;65.870;13.210;2023-11-19T02:03:22;100732.84;;;-1.70;74.80
82575;BME280;72260;65.870;13.210;2023-11-19T02:05:51;100729.41;;;-1.75;75.02
82575;BME280;72260;65.870;13.210;2023-11-19T02:08:18;100732.97;;;-1.86;74.48
82575;BME280;72260;65.870;13.210;2023-11-19T02:10:44;100723.38;;;-1.74;74.50
82575;BME280;72260;65.870;13.210;2023-11-19T02:13:10;100726.13;;;-1.93;75.15
82575;BME280;72260;65.870;13.210;2023-11-19T02:15:35;100716.56;;;-1.87;75.29
82575;BME280;72260;65.870;13.210;2023-11-19T02:18:21;100717.38;;;-1.79;76.48
82575;BME280;72260;65.870;13.210;2023-11-19T02:20:48;100712.09;;;-1.71;75.58
82575;BME280;72260;65.870;13.210;2023-11-19T02:23:15;100715.31;;;-1.49;77.23
82575;BME280;72260;65.870;13.210;2023-11-19T02:25:40;100720.53;;;-1.54;75.27
82575;BME280;72260;65.870;13.210;2023-11-19T02:28:07;100705.06;;;-1.60;74.95
82575;BME280;72260;65.870;13.210;2023-11-19T02:30:32;100705.41;;;-1.92;75.29
82575;BME280;72260;65.870;13.210;2023-11-19T02:32:59;100690.84;;;-2.04;75.53
82575;BME280;72260;65.870;13.210;2023-11-19T02:35:28;100696.72;;;-1.88;75.71
82575;BME280;72260;65.870;13.210;2023-11-19T02:37:57;100695.25;;;-2.12;75.60
82575;BME280;72260;65.870;13.210;2023-11-19T02:40:23;100692.78;;;-2.27;75.68
82575;BME280;72260;65.870;13.210;2023-11-19T02:42:54;100692.59;;;-2.04;75.71
82575;BME280;72260;65.870;13.210;2023-11-19T02:45:21;100699.53;;;-2.08;75.71
82575;BME280;72260;65.870;13.210;2023-11-19T02:47:47;100692.44;;;-1.90;75.90
82575;BME280;72260;65.870;13.210;2023-11-19T02:50:13;100689.94;;;-1.96;75.90
82575;BME280;72260;65.870;13.210;2023-11-19T02:52:42;100686.53;;;-2.05;76.11
82575;BME280;72260;65.870;13.210;2023-11-19T02:55:08;100685.75;;;-2.14;75.52
82575;BME280;72260;65.870;13.210;2023-11-19T02:57:43;100689.91;;;-1.95;74.94
82575;BME280;72260;65.870;13.210;2023-11-19T03:00:17;100681.44;;;-2.14;75.60
82575;BME280;72260;65.870;13.210;2023-11-19T03:02:44;100680.41;;;-1.96;75.17
82575;BME280;72260;65.870;13.210;2023-11-19T03:05:15;100680.50;;;-2.05;75.62
82575;BME280;72260;65.870;13.210;2023-11-19T03:07:42;100675.34;;;-2.08;75.05
82575;BME280;72260;65.870;13.210;2023-11-19T03:10:11;100676.13;;;-1.98;75.31
82575;BME280;72260;65.870;13.210;2023-11-19T03:12:43;100671.88;;;-2.04;75.16
82575;BME280;72260;65.870;13.210;2023-11-19T03:15:11;100672.84;;;-2.16;75.80
82575;BME280;72260;65.870;13.210;2023-11-19T03:17:38;100670.19;;;-2.08;74.34
82575;BME280;72260;65.870;13.210;2023-11-19T03:20:09;100659.91;;;-2.20;75.45
82575;BME280;72260;65.870;13.210;2023-11-19T03:22:36;100654.69;;;-2.16;75.22
82575;BME280;72260;65.870;13.210;2023-11-19T03:25:02;100666.66;;;-2.03;74.55
82575;BME280;72260;65.870;13.210;2023-11-19T03:27:27;100677.00;;;-2.01;74.33
82575;BME280;72260;65.870;13.210;2023-11-19T03:29:53;100676.34;;;-2.24;74.03
82575;BME280;72260;65.870;13.210;2023-11-19T03:32:18;100667.69;;;-2.22;74.59
82575;BME280;72260;65.870;13.210;2023-11-19T03:34:43;100656.47;;;-2.21;74.85
82575;BME280;72260;65.870;13.210;2023-11-19T03:37:09;100653.91;;;-2.22;74.82
82575;BME280;72260;65.870;13.210;2023-11-19T03:39:35;100658.31;;;-2.32;74.86
82575;BME280;72260;65.870;13.210;2023-11-19T03:42:00;100665.22;;;-2.31;74.59
82575;BME280;72260;65.870;13.210;2023-11-19T03:44:27;100660.22;;;-2.52;75.00
82575;BME280;72260;65.870;13.210;2023-11-19T03:46:52;100660.88;;;-2.27;74.57
82575;BME280;72260;65.870;13.210;2023-11-19T03:49:18;100649.56;;;-2.19;74.22
82575;BME280;72260;65.870;13.210;2023-11-19T03:51:43;100651.41;;;-2.30;73.33
82575;BME280;72260;65.870;13.210;2023-11-19T03:54:09;100637.56;;;-2.27;74.19
82575;BME280;72260;65.870;13.210;2023-11-19T03:56:34;100645.38;;;-2.30;73.99
82575;BME280;72260;65.870;13.210;2023-11-19T03:59:00;100642.69;;;-2.24;74.05
82575;BME280;72260;65.870;13.210;2023-11-19T04:01:25;100648.91;;;-2.41;74.46
82575;BME280;72260;65.870;13.210;2023-11-19T04:03:51;100636.88;;;-2.48;75.02
82575;BME280;72260;65.870;13.210;2023-11-19T04:06:17;100634.16;;;-2.32;75.25
82575;BME280;72260;65.870;13.210;2023-11-19T04:08:42;100630.63;;;-2.27;75.34
82575;BME280;72260;65.870;13.210;2023-11-19T04:11:08;100628.69;;;-2.05;75.72
82575;BME280;72260;65.870;13.210;2023-11-19T04:13:34;100635.13;;;-2.46;73.29
82575;BME280;72260;65.870;13.210;2023-11-19T04:16:00;100615.47;;;-2.62;73.63
82575;BME280;72260;65.870;13.210;2023-11-19T04:18:25;100625.84;;;-2.68;74.33
82575;BME280;72260;65.870;13.210;2023-11-19T04:20:51;100627.53;;;-2.62;74.57
82575;BME280;72260;65.870;13.210;2023-11-19T04:23:16;100627.56;;;-2.67;75.21
82575;BME280;72260;65.870;13.210;2023-11-19T04:25:42;100624.38;;;-3.02;75.28
82575;BME280;72260;65.870;13.210;2023-11-19T04:28:07;100620.91;;;-2.95;75.91
82575;BME280;72260;65.870;13.210;2023-11-19T04:30:33;100617.31;;;-2.81;75.55
82575;BME280;72260;65.870;13.210;2023-11-19T04:32:59;100616.63;;;-3.02;75.94
82575;BME280;72260;65.870;13.210;2023-11-19T04:35:24;100619.19;;;-2.99;76.11
82575;BME280;72260;65.870;13.210;2023-11-19T04:37:51;100623.53;;;-3.05;75.28
82575;BME280;72260;65.870;13.210;2023-11-19T04:40:17;100628.69;;;-3.03;75.22
82575;BME280;72260;65.870;13.210;2023-11-19T04:42:43;100616.59;;;-2.95;75.35
82575;BME280;72260;65.870;13.210;2023-11-19T04:45:09;100614.91;;;-3.00;74.90
82575;BME280;72260;65.870;13.210;2023-11-19T04:47:36;100611.47;;;-3.04;75.27
82575;BME280;72260;65.870;13.210;2023-11-19T04:50:02;100607.19;;;-3.11;74.80
82575;BME280;72260;65.870;13.210;2023-11-19T04:52:28;100608.19;;;-3.27;75.66
82575;BME280;72260;65.870;13.210;2023-11-19T04:54:54;100610.69;;;-3.20;74.67
82575;BME280;72260;65.870;13.210;2023-11-19T04:57:19;100609.94;;;-3.34;75.70
82575;BME280;72260;65.870;13.210;2023-11-19T04:59:45;100601.47;;;-3.62;76.52
82575;BME280;72260;65.870;13.210;2023-11-19T05:02:10;100604.91;;;-3.58;77.42
82575;BME280;72260;65.870;13.210;2023-11-19T05:04:36;100597.16;;;-3.58;74.94
82575;BME280;72260;65.870;13.210;2023-11-19T05:07:03;100600.53;;;-3.50;75.86
82575;BME280;72260;65.870;13.210;2023-11-19T05:09:30;100594.50;;;-3.45;75.30
82575;BME280;72260;65.870;13.210;2023-11-19T05:11:55;100596.25;;;-3.51;76.17
82575;BME280;72260;65.870;13.210;2023-11-19T05:14:21;100591.16;;;-3.60;75.47
82575;BME280;72260;65.870;13.210;2023-11-19T05:16:47;100590.22;;;-3.50;75.38
82575;BME280;72260;65.870;13.210;2023-11-19T05:19:13;100593.59;;;-3.39;74.96
82575;BME280;72260;65.870;13.210;2023-11-19T05:21:42;100587.53;;;-3.35;74.71
82575;BME280;72260;65.870;13.210;2023-11-19T05:24:08;100591.81;;;-3.28;75.35
82575;BME280;72260;65.870;13.210;2023-11-19T05:26:33;100597.88;;;-3.35;74.31
82575;BME280;72260;65.870;13.210;2023-11-19T05:28:59;100589.28;;;-3.39;74.40
82575;BME280;72260;65.870;13.210;2023-11-19T05:31:24;100580.69;;;-3.42;75.00
82575;BME280;72260;65.870;13.210;2023-11-19T05:33:50;100591.06;;;-3.48;73.97
82575;BME280;72260;65.870;13.210;2023-11-19T05:36:15;100582.59;;;-3.73;75.10
82575;BME280;72260;65.870;13.210;2023-11-19T05:38:41;100593.75;;;-3.69;75.09
82575;BME280;72260;65.870;13.210;2023-11-19T05:41:06;100592.06;;;-3.77;74.50
82575;BME280;72260;65.870;13.210;2023-11-19T05:43:32;100582.59;;;-3.79;74.99
82575;BME280;72260;65.870;13.210;2023-11-19T05:45:58;100580.97;;;-3.92;74.43
82575;BME280;72260;65.870;13.210;2023-11-19T05:48:25;100593.00;;;-3.93;74.58
82575;BME280;72260;65.870;13.210;2023-11-19T05:50:51;100587.00;;;-3.98;75.61
82575;BME280;72260;65.870;13.210;2023-11-19T05:53:16;100587.03;;;-4.13;75.74
82575;BME280;72260;65.870;13.210;2023-11-19T05:55:42;100580.13;;;-4.05;75.62
82575;BME280;72260;65.870;13.210;2023-11-19T05:58:26;100582.72;;;-4.03;74.54
82575;BME280;72260;65.870;13.210;2023-11-19T06:00:57;100586.19;;;-4.14;75.51
82575;BME280;72260;65.870;13.210;2023-11-19T06:03:23;100583.56;;;-3.98;75.54
82575;BME280;72260;65.870;13.210;2023-11-19T06:05:49;100568.97;;;-4.16;76.41
82575;BME280;72260;65.870;13.210;2023-11-19T06:08:15;100579.28;;;-4.02;76.46
82575;BME280;72260;65.870;13.210;2023-11-19T06:10:41;100569.72;;;-3.85;77.23
82575;BME280;72260;65.870;13.210;2023-11-19T06:13:07;100576.63;;;-3.89;73.92
82575;BME280;72260;65.870;13.210;2023-11-19T06:15:35;100580.22;;;-4.40;74.62
82575;BME280;72260;65.870;13.210;2023-11-19T06:18:01;100572.47;;;-4.32;75.12
82575;BME280;72260;65.870;13.210;2023-11-19T06:20:31;100566.47;;;-4.45;75.97
82575;BME280;72260;65.870;13.210;2023-11-19T06:22:57;100560.47;;;-4.52;75.59
82575;BME280;72260;65.870;13.210;2023-11-19T06:25:23;100575.13;;;-4.67;76.74
82575;BME280;72260;65.870;13.210;2023-11-19T06:27:52;100575.13;;;-4.67;76.74
82575;BME280;72260;65.870;13.210;2023-11-19T06:30:18;100575.13;;;-4.63;76.30
82575;BME280;72260;65.870;13.210;2023-11-19T06:32:43;100573.41;;;-4.61;76.34
82575;BME280;72260;65.870;13.210;2023-11-19T06:35:09;100568.25;;;-4.64;76.17
82575;BME280;72260;65.870;13.210;2023-11-19T06:37:38;100570.81;;;-4.78;76.22
82575;BME280;72260;65.870;13.210;2023-11-19T06:40:04;100563.09;;;-4.87;77.39
82575;BME280;72260;65.870;13.210;2023-11-19T06:42:30;100566.53;;;-4.79;76.32
82575;BME280;72260;65.870;13.210;2023-11-19T06:44:55;100566.53;;;-4.69;75.74
82575;BME280;72260;65.870;13.210;2023-11-19T06:47:25;100563.13;;;-4.91;76.49
82575;BME280;72260;65.870;13.210;2023-11-19T06:49:52;100571.69;;;-4.85;75.02
82575;BME280;72260;65.870;13.210;2023-11-19T06:52:17;100561.41;;;-5.20;76.79
82575;BME280;72260;65.870;13.210;2023-11-19T06:54:43;100574.28;;;-5.04;76.70
82575;BME280;72260;65.870;13.210;2023-11-19T06:57:11;100569.13;;;-5.12;77.33
82575;BME280;72260;65.870;13.210;2023-11-19T06:59:37;100566.53;;;-5.08;77.44
82575;BME280;72260;65.870;13.210;2023-11-19T07:02:03;100547.63;;;-5.14;76.04
82575;BME280;72260;65.870;13.210;2023-11-19T07:04:30;100552.78;;;-5.10;76.11
82575;BME280;72260;65.870;13.210;2023-11-19T07:06:55;100554.50;;;-5.15;76.69
82575;BME280;72260;65.870;13.210;2023-11-19T07:09:21;100551.06;;;-5.38;77.08
82575;BME280;72260;65.870;13.210;2023-11-19T07:11:46;100558.81;;;-5.30;77.49
82575;BME280;72260;65.870;13.210;2023-11-19T07:14:12;100562.22;;;-5.42;77.33
82575;BME280;72260;65.870;13.210;2023-11-19T07:16:38;100564.81;;;-5.36;76.90
82575;BME280;72260;65.870;13.210;2023-11-19T07:19:05;100551.09;;;-5.27;76.07
82575;BME280;72260;65.870;13.210;2023-11-19T07:21:31;100562.25;;;-5.27;75.56
82575;BME280;72260;65.870;13.210;2023-11-19T07:23:58;100575.97;;;-5.29;76.23
82575;BME280;72260;65.870;13.210;2023-11-19T07:26:24;100571.63;;;-5.61;77.25
82575;BME280;72260;65.870;13.210;2023-11-19T07:28:50;100579.34;;;-5.65;77.09
82575;BME280;72260;65.870;13.210;2023-11-19T07:31:16;100571.66;;;-5.58;77.95
82575;BME280;72260;65.870;13.210;2023-11-19T07:33:41;100578.50;;;-5.63;76.99
82575;BME280;72260;65.870;13.210;2023-11-19T07:36:09;100563.88;;;-5.67;77.50
82575;BME280;72260;65.870;13.210;2023-11-19T07:38:34;100567.28;;;-5.79;77.31
82575;BME280;72260;65.870;13.210;2023-11-19T07:41:00;100565.53;;;-5.83;77.85
82575;BME280;72260;65.870;13.210;2023-11-19T07:43:26;100575.03;;;-5.68;77.83
82575;BME280;72260;65.870;13.210;2023-11-19T07:45:51;100573.34;;;-5.64;78.71
82575;BME280;72260;65.870;13.210;2023-11-19T07:48:17;100581.09;;;-5.46;79.28
82575;BME280;72260;65.870;13.210;2023-11-19T07:50:48;100568.19;;;-5.61;75.89
82575;BME280;72260;65.870;13.210;2023-11-19T07:53:16;100579.31;;;-5.70;75.74
82575;BME280;72260;65.870;13.210;2023-11-19T07:55:41;100571.56;;;-5.91;76.78
82575;BME280;72260;65.870;13.210;2023-11-19T07:58:07;100568.13;;;-5.87;77.78
82575;BME280;72260;65.870;13.210;2023-11-19T08:00:32;100575.00;;;-5.88;76.73
82575;BME280;72260;65.870;13.210;2023-11-19T08:02:58;100577.47;;;-6.12;77.56
82575;BME280;72260;65.870;13.210;2023-11-19T08:05:23;100587.78;;;-6.09;77.05
82575;BME280;72260;65.870;13.210;2023-11-19T08:07:50;100585.22;;;-6.06;77.81
82575;BME280;72260;65.870;13.210;2023-11-19T08:10:18;100586.03;;;-6.15;78.73
82575;BME280;72260;65.870;13.210;2023-11-19T08:12:44;100575.75;;;-6.21;78.60
82575;BME280;72260;65.870;13.210;2023-11-19T08:15:10;100576.59;;;-6.19;78.08
82575;BME280;72260;65.870;13.210;2023-11-19T08:17:36;100580.03;;;-6.18;78.53
82575;BME280;72260;65.870;13.210;2023-11-19T08:20:03;100566.22;;;-6.37;77.42
82575;BME280;72260;65.870;13.210;2023-11-19T08:22:30;100574.84;;;-6.26;77.47
82575;BME280;72260;65.870;13.210;2023-11-19T08:24:56;100584.16;;;-6.46;78.70
82575;BME280;72260;65.870;13.210;2023-11-19T08:27:21;100566.19;;;-6.41;77.31
82575;BME280;72260;65.870;13.210;2023-11-19T08:29:53;100573.00;;;-6.51;78.00
82575;BME280;72260;65.870;13.210;2023-11-19T08:32:21;100573.84;;;-6.54;78.36
82575;BME280;72260;65.870;13.210;2023-11-19T08:34:46;100578.97;;;-6.49;78.36
82575;BME280;72260;65.870;13.210;2023-11-19T08:37:12;100573.03;;;-6.40;79.21
82575;BME280;72260;65.870;13.210;2023-11-19T08:39:38;100569.72;;;-6.24;80.53
82575;BME280;72260;65.870;13.210;2023-11-19T08:42:04;100572.28;;;-6.27;78.27
82575;BME280;72260;65.870;13.210;2023-11-19T08:44:29;100571.28;;;-6.49;78.74
82575;BME280;72260;65.870;13.210;2023-11-19T08:46:55;100564.44;;;-6.46;77.46
82575;BME280;72260;65.870;13.210;2023-11-19T08:49:20;100552.41;;;-6.57;77.42
82575;BME280;72260;65.870;13.210;2023-11-19T08:51:46;100555.81;;;-6.57;77.68
82575;BME280;72260;65.870;13.210;2023-11-19T08:54:12;100566.06;;;-6.61;78.88
82575;BME280;72260;65.870;13.210;2023-11-19T08:56:38;100565.25;;;-6.59;79.59
82575;BME280;72260;65.870;13.210;2023-11-19T08:59:05;100559.16;;;-6.70;78.22
82575;BME280;72260;65.870;13.210;2023-11-19T09:01:30;100578.13;;;-6.54;77.92
82575;BME280;72260;65.870;13.210;2023-11-19T09:03:56;100564.31;;;-6.67;78.42
82575;BME280;72260;65.870;13.210;2023-11-19T09:06:21;100564.41;;;-6.53;78.48
82575;BME280;72260;65.870;13.210;2023-11-19T09:08:47;100559.19;;;-6.64;78.03
82575;BME280;72260;65.870;13.210;2023-11-19T09:11:12;100562.56;;;-6.74;79.53
82575;BME280;72260;65.870;13.210;2023-11-19T09:13:38;100562.66;;;-6.62;77.32
82575;BME280;72260;65.870;13.210;2023-11-19T09:16:04;100553.25;;;-6.58;78.08
82575;BME280;72260;65.870;13.210;2023-11-19T09:18:30;100561.84;;;-6.55;77.61
82575;BME280;72260;65.870;13.210;2023-11-19T09:20:55;100554.09;;;-6.61;78.21
82575;BME280;72260;65.870;13.210;2023-11-19T09:23:21;100562.63;;;-6.65;77.53
82575;BME280;72260;65.870;13.210;2023-11-19T09:25:46;100571.09;;;-6.78;78.62
82575;BME280;72260;65.870;13.210;2023-11-19T09:28:12;100558.25;;;-6.75;77.83
82575;BME280;72260;65.870;13.210;2023-11-19T09:30:39;100549.75;;;-6.68;78.00
82575;BME280;72260;65.870;13.210;2023-11-19T09:33:05;100563.38;;;-6.80;77.87
82575;BME280;72260;65.870;13.210;2023-11-19T09:35:31;100560.00;;;-6.72;79.06
82575;BME280;72260;65.870;13.210;2023-11-19T09:37:56;100546.31;;;-6.68;79.22
82575;BME280;72260;65.870;13.210;2023-11-19T09:40:22;100553.28;;;-6.48;78.69
82575;BME280;72260;65.870;13.210;2023-11-19T09:42:47;100556.69;;;-6.55;78.40
82575;BME280;72260;65.870;13.210;2023-11-19T09:45:15;100557.44;;;-6.72;78.04
82575;BME280;72260;65.870;13.210;2023-11-19T09:47:45;100553.03;;;-6.90;78.21
82575;BME280;72260;65.870;13.210;2023-11-19T09:50:15;100561.59;;;-6.91;78.11
82575;BME280;72260;65.870;13.210;2023-11-19T09:52:42;100558.06;;;-7.04;77.74
82575;BME280;72260;65.870;13.210;2023-11-19T09:55:08;100563.34;;;-6.87;77.73
82575;BME280;72260;65.870;13.210;2023-11-19T09:57:34;100547.97;;;-6.78;77.71
82575;BME280;72260;65.870;13.210;2023-11-19T10:00:03;100555.72;;;-6.72;76.96
82575;BME280;72260;65.870;13.210;2023-11-19T10:02:31;100549.38;;;-7.20;76.91
82575;BME280;72260;65.870;13.210;2023-11-19T10:04:59;100549.53;;;-6.98;77.54
82575;BME280;72260;65.870;13.210;2023-11-19T10:07:26;100548.78;;;-6.85;77.29
82575;BME280;72260;65.870;13.210;2023-11-19T10:09:52;100558.22;;;-6.83;77.89
82575;BME280;72260;65.870;13.210;2023-11-19T10:12:18;100542.81;;;-6.78;77.45
82575;BME280;72260;65.870;13.210;2023-11-19T10:14:44;100542.78;;;-6.81;77.51
82575;BME280;72260;65.870;13.210;2023-11-19T10:17:11;100553.88;;;-6.93;76.74
82575;BME280;72260;65.870;13.210;2023-11-19T10:19:36;100551.22;;;-7.03;77.10
82575;BME280;72260;65.870;13.210;2023-11-19T10:22:05;100552.16;;;-6.92;78.13
82575;BME280;72260;65.870;13.210;2023-11-19T10:24:32;100551.38;;;-6.85;78.54
82575;BME280;72260;65.870;13.210;2023-11-19T10:27:00;100526.44;;;-6.94;78.63
82575;BME280;72260;65.870;13.210;2023-11-19T10:29:29;100542.81;;;-6.80;79.22
82575;BME280;72260;65.870;13.210;2023-11-19T10:31:56;100536.84;;;-6.72;78.11
82575;BME280;72260;65.870;13.210;2023-11-19T10:34:26;100537.50;;;-7.02;76.58
82575;BME280;72260;65.870;13.210;2023-11-19T10:36:52;100538.44;;;-6.94;76.04
82575;BME280;72260;65.870;13.210;2023-11-19T10:39:18;100540.97;;;-7.00;77.54
82575;BME280;72260;65.870;13.210;2023-11-19T10:41:44;100538.25;;;-7.14;76.68
82575;BME280;72260;65.870;13.210;2023-11-19T10:44:09;100528.72;;;-7.30;78.20
82575;BME280;72260;65.870;13.210;2023-11-19T10:46:39;100529.72;;;-7.18;79.28
82575;BME280;72260;65.870;13.210;2023-11-19T10:49:09;100528.75;;;-7.29;78.73
82575;BME280;72260;65.870;13.210;2023-11-19T10:51:35;100518.38;;;-7.41;79.18
82575;BME280;72260;65.870;13.210;2023-11-19T10:54:05;100509.06;;;-7.27;78.14
82575;BME280;72260;65.870;13.210;2023-11-19T10:56:32;100510.03;;;-7.16;77.13
82575;BME280;72260;65.870;13.210;2023-11-19T10:58:59;100505.97;;;-6.85;75.63
82575;BME280;72260;65.870;13.210;2023-11-19T11:01:27;100509.56;;;-6.48;75.23
82575;BME280;72260;65.870;13.210;2023-11-19T11:03:59;100518.28;;;-6.24;72.92
82575;BME280;72260;65.870;13.210;2023-11-19T11:06:26;100518.19;;;-6.41;73.01
82575;BME280;72260;65.870;13.210;2023-11-19T11:08:53;100526.78;;;-6.37;73.54
82575;BME280;72260;65.870;13.210;2023-11-19T11:11:19;100504.41;;;-6.49;73.55
82575;BME280;72260;65.870;13.210;2023-11-19T11:13:50;100518.25;;;-6.27;75.05
82575;BME280;72260;65.870;13.210;2023-11-19T11:16:19;100527.81;;;-5.75;74.02
82575;BME280;72260;65.870;13.210;2023-11-19T11:18:47;100512.41;;;-5.62;73.43
82575;BME280;72260;65.870;13.210;2023-11-19T11:21:17;100515.81;;;-5.69;70.40
82575;BME280;72260;65.870;13.210;2023-11-19T11:29:49;100520.97;;;-5.69;73.02
82575;BME280;72260;65.870;13.210;2023-11-19T11:38:08;100516.66;;;-5.87;71.53
82575;BME280;72260;65.870;13.210;2023-11-19T11:40:34;100515.75;;;-6.03;71.74
82575;BME280;72260;65.870;13.210;2023-11-19T11:43:01;100510.56;;;-6.14;72.43
82575;BME280;72260;65.870;13.210;2023-11-19T11:45:40;100526.88;;;-6.18;71.92
82575;BME280;72260;65.870;13.210;2023-11-19T11:48:20;100507.91;;;-6.41;71.75
82575;BME280;72260;65.870;13.210;2023-11-19T11:50:54;100506.13;;;-6.48;73.12
82575;BME280;72260;65.870;13.210;2023-11-19T11:53:22;100515.59;;;-6.43;73.62
82575;BME280;72260;65.870;13.210;2023-11-19T11:58:27;100491.63;;;-6.38;71.78
82575;BME280;72260;65.870;13.210;2023-11-19T12:00:57;100493.31;;;-6.44;73.56
82575;BME280;72260;65.870;13.210;2023-11-19T12:03:23;100501.88;;;-6.41;72.70
82575;BME280;72260;65.870;13.210;2023-11-19T12:05:49;100489.72;;;-6.76;73.36
82575;BME280;72260;65.870;13.210;2023-11-19T12:08:18;100510.97;;;-7.01;74.07
82575;BME280;72260;65.870;13.210;2023-11-19T12:10:52;100516.03;;;-7.11;74.27
82575;BME280;72260;65.870;13.210;2023-11-19T12:13:20;100503.75;;;-7.50;74.85
82575;BME280;72260;65.870;13.210;2023-11-19T12:18:28;100521.19;;;-8.01;74.15
82575;BME280;72260;65.870;13.210;2023-11-19T12:20:55;100513.75;;;-7.77;76.17
82575;BME280;72260;65.870;13.210;2023-11-19T12:23:22;100488.31;;;-7.54;77.31
82575;BME280;72260;65.870;13.210;2023-11-19T12:25:47;100490.09;;;-7.47;76.38
82575;BME280;72260;65.870;13.210;2023-11-19T12:28:14;100495.19;;;-7.50;76.85
82575;BME280;72260;65.870;13.210;2023-11-19T12:30:41;100509.56;;;-7.67;75.38
82575;BME280;72260;65.870;13.210;2023-11-19T12:33:11;100492.00;;;-8.14;76.47
82575;BME280;72260;65.870;13.210;2023-11-19T12:35:44;100499.63;;;-8.20;75.76
82575;BME280;72260;65.870;13.210;2023-11-19T12:38:25;100504.41;;;-8.51;76.54
82575;BME280;72260;65.870;13.210;2023-11-19T12:41:07;100491.63;;;-8.49;76.48
82575;BME280;72260;65.870;13.210;2023-11-19T12:43:34;100499.28;;;-8.51;76.92
82575;BME280;72260;65.870;13.210;2023-11-19T12:46:00;100494.06;;;-8.58;77.08
82575;BME280;72260;65.870;13.210;2023-11-19T12:48:26;100497.53;;;-8.55;76.81
82575;BME280;72260;65.870;13.210;2023-11-19T12:53:22;100476.84;;;-8.68;77.58
82575;BME280;72260;65.870;13.210;2023-11-19T12:55:48;100481.25;;;-8.57;77.05
82575;BME280;72260;65.870;13.210;2023-11-19T12:58:31;100483.97;;;-8.46;78.25